sensor_id;sensor_type;location;lat;lon;timestamp;P1;durP1;ratioP1;P2;durP2;ratioP2
8191;SDS011;4137;49.764;8.652;2022-08-30T00:00:31;1.13;;;1.10;;
8191;SDS011;4137;49.764;8.652;2022-08-30T00:03:16;1.33;;;1.08;;
8191;SDS011;4137;49.764;8.652;2022-08-30T00:05:43;1.23;;;1.13;;
8191;SDS011;4137;49.764;8.652;2022-08-30T00:08:09;1.17;;;1.17;;
8191;SDS011;4137;49.764;8.652;2022-08-30T00:10:35;2.30;;;1.50;;
8191;SDS011;4137;49.764;8.652;2022-08-30T00:13:02;1.30;;;1.20;;
8191;SDS011;4137;49.764;8.652;2022-08-30T00:15:28;1.65;;;1.20;;
8191;SDS011;4137;49.764;8.652;2022-08-30T00:17:54;3.50;;;1.05;;
8191;SDS011;4137;49.764;8.652;2022-08-30T00:20:23;1.35;;;1.15;;
8191;SDS011;4137;49.764;8.652;2022-08-30T00:22:49;1.42;;;1.38;;
8191;SDS011;4137;49.764;8.652;2022-08-30T00:25:15;2.25;;;1.13;;
8191;SDS011;4137;49.764;8.652;2022-08-30T00:27:41;2.45;;;1.33;;
8191;SDS011;4137;49.764;8.652;2022-08-30T00:30:09;1.00;;;1.00;;
8191;SDS011;4137;49.764;8.652;2022-08-30T00:32:35;1.33;;;1.20;;
8191;SDS011;4137;49.764;8.652;2022-08-30T00:35:02;3.00;;;1.48;;
8191;SDS011;4137;49.764;8.652;2022-08-30T00:37:28;2.05;;;1.70;;
8191;SDS011;4137;49.764;8.652;2022-08-30T00:39:54;1.35;;;1.10;;
8191;SDS011;4137;49.764;8.652;2022-08-30T00:42:20;1.40;;;1.27;;
8191;SDS011;4137;49.764;8.652;2022-08-30T00:44:49;3.42;;;1.23;;
8191;SDS011;4137;49.764;8.652;2022-08-30T00:47:15;1.77;;;1.25;;
8191;SDS011;4137;49.764;8.652;2022-08-30T00:49:44;3.10;;;1.65;;
8191;SDS011;4137;49.764;8.652;2022-08-30T00:52:11;1.75;;;1.55;;
8191;SDS011;4137;49.764;8.652;2022-08-30T00:54:37;2.85;;;1.30;;
8191;SDS011;4137;49.764;8.652;2022-08-30T00:57:04;1.80;;;1.17;;
8191;SDS011;4137;49.764;8.652;2022-08-30T00:59:30;5.10;;;1.42;;
8191;SDS011;4137;49.764;8.652;2022-08-30T01:01:56;1.00;;;1.00;;
8191;SDS011;4137;49.764;8.652;2022-08-30T01:04:24;1.50;;;1.50;;
8191;SDS011;4137;49.764;8.652;2022-08-30T01:06:51;1.40;;;1.30;;
8191;SDS011;4137;49.764;8.652;2022-08-30T01:09:17;2.03;;;1.50;;
8191;SDS011;4137;49.764;8.652;2022-08-30T01:11:44;1.65;;;1.40;;
8191;SDS011;4137;49.764;8.652;2022-08-30T01:14:11;1.48;;;1.30;;
8191;SDS011;4137;49.764;8.652;2022-08-30T01:16:37;1.00;;;1.00;;
8191;SDS011;4137;49.764;8.652;2022-08-30T01:19:04;4.47;;;1.38;;
8191;SDS011;4137;49.764;8.652;2022-08-30T01:21:36;1.10;;;1.00;;
8191;SDS011;4137;49.764;8.652;2022-08-30T01:24:04;1.38;;;1.23;;
8191;SDS011;4137;49.764;8.652;2022-08-30T01:26:31;2.05;;;1.50;;
8191;SDS011;4137;49.764;8.652;2022-08-30T01:28:59;2.85;;;1.33;;
8191;SDS011;4137;49.764;8.652;2022-08-30T01:31:28;1.83;;;1.70;;
8191;SDS011;4137;49.764;8.652;2022-08-30T01:33:54;2.03;;;1.58;;
8191;SDS011;4137;49.764;8.652;2022-08-30T01:36:20;4.20;;;1.40;;
8191;SDS011;4137;49.764;8.652;2022-08-30T01:38:50;1.50;;;1.50;;
8191;SDS011;4137;49.764;8.652;2022-08-30T01:41:18;5.05;;;1.38;;
8191;SDS011;4137;49.764;8.652;2022-08-30T01:43:45;2.25;;;1.65;;
8191;SDS011;4137;49.764;8.652;2022-08-30T01:46:11;3.38;;;1.52;;
8191;SDS011;4137;49.764;8.652;2022-08-30T01:48:39;1.67;;;1.58;;
8191;SDS011;4137;49.764;8.652;2022-08-30T01:51:05;1.80;;;1.42;;
8191;SDS011;4137;49.764;8.652;2022-08-30T01:53:34;1.80;;;1.70;;
8191;SDS011;4137;49.764;8.652;2022-08-30T01:56:00;1.17;;;1.17;;
8191;SDS011;4137;49.764;8.652;2022-08-30T01:58:26;1.73;;;1.63;;
8191;SDS011;4137;49.764;8.652;2022-08-30T02:00:52;1.95;;;1.80;;
8191;SDS011;4137;49.764;8.652;2022-08-30T02:03:18;5.15;;;1.48;;
8191;SDS011;4137;49.764;8.652;2022-08-30T02:05:44;1.40;;;1.27;;
8191;SDS011;4137;49.764;8.652;2022-08-30T02:08:10;1.95;;;1.65;;
8191;SDS011;4137;49.764;8.652;2022-08-30T02:10:36;2.72;;;1.45;;
8191;SDS011;4137;49.764;8.652;2022-08-30T02:13:02;2.15;;;1.50;;
8191;SDS011;4137;49.764;8.652;2022-08-30T02:15:28;1.77;;;1.48;;
8191;SDS011;4137;49.764;8.652;2022-08-30T02:17:54;3.13;;;1.50;;
8191;SDS011;4137;49.764;8.652;2022-08-30T02:20:20;1.83;;;1.60;;
8191;SDS011;4137;49.764;8.652;2022-08-30T02:22:46;4.20;;;1.67;;
8191;SDS011;4137;49.764;8.652;2022-08-30T02:25:12;4.60;;;1.55;;
8191;SDS011;4137;49.764;8.652;2022-08-30T02:27:38;1.38;;;1.17;;
8191;SDS011;4137;49.764;8.652;2022-08-30T02:30:05;2.45;;;1.30;;
8191;SDS011;4137;49.764;8.652;2022-08-30T02:32:31;1.05;;;1.05;;
8191;SDS011;4137;49.764;8.652;2022-08-30T02:34:57;1.95;;;1.80;;
8191;SDS011;4137;49.764;8.652;2022-08-30T02:37:23;3.30;;;1.58;;
8191;SDS011;4137;49.764;8.652;2022-08-30T02:39:49;2.80;;;1.52;;
8191;SDS011;4137;49.764;8.652;2022-08-30T02:42:15;1.90;;;1.80;;
8191;SDS011;4137;49.764;8.652;2022-08-30T02:44:41;1.35;;;1.35;;
8191;SDS011;4137;49.764;8.652;2022-08-30T02:47:07;4.30;;;1.65;;
8191;SDS011;4137;49.764;8.652;2022-08-30T02:49:33;1.70;;;1.60;;
8191;SDS011;4137;49.764;8.652;2022-08-30T02:52:00;1.77;;;1.55;;
8191;SDS011;4137;49.764;8.652;2022-08-30T02:54:26;2.35;;;1.77;;
8191;SDS011;4137;49.764;8.652;2022-08-30T02:56:52;3.67;;;1.52;;
8191;SDS011;4137;49.764;8.652;2022-08-30T02:59:19;1.83;;;1.73;;
8191;SDS011;4137;49.764;8.652;2022-08-30T03:01:45;3.33;;;1.65;;
8191;SDS011;4137;49.764;8.652;2022-08-30T03:06:40;1.77;;;1.67;;
8191;SDS011;4137;49.764;8.652;2022-08-30T03:09:06;1.67;;;1.50;;
8191;SDS011;4137;49.764;8.652;2022-08-30T03:11:32;1.48;;;1.48;;
8191;SDS011;4137;49.764;8.652;2022-08-30T03:13:58;1.50;;;1.40;;
8191;SDS011;4137;49.764;8.652;2022-08-30T03:16:24;1.80;;;1.60;;
8191;SDS011;4137;49.764;8.652;2022-08-30T03:18:50;1.63;;;1.48;;
8191;SDS011;4137;49.764;8.652;2022-08-30T03:21:16;5.20;;;1.38;;
8191;SDS011;4137;49.764;8.652;2022-08-30T03:23:42;3.65;;;1.80;;
8191;SDS011;4137;49.764;8.652;2022-08-30T03:26:09;1.65;;;1.52;;
8191;SDS011;4137;49.764;8.652;2022-08-30T03:28:39;5.20;;;1.92;;
8191;SDS011;4137;49.764;8.652;2022-08-30T03:31:06;2.40;;;1.63;;
8191;SDS011;4137;49.764;8.652;2022-08-30T03:33:32;2.00;;;1.90;;
8191;SDS011;4137;49.764;8.652;2022-08-30T03:35:59;1.38;;;1.38;;
8191;SDS011;4137;49.764;8.652;2022-08-30T03:38:25;2.10;;;2.00;;
8191;SDS011;4137;49.764;8.652;2022-08-30T03:40:51;1.80;;;1.70;;
8191;SDS011;4137;49.764;8.652;2022-08-30T03:43:17;1.85;;;1.75;;
8191;SDS011;4137;49.764;8.652;2022-08-30T03:45:43;2.45;;;1.88;;
8191;SDS011;4137;49.764;8.652;2022-08-30T03:48:09;2.65;;;1.90;;
8191;SDS011;4137;49.764;8.652;2022-08-30T03:50:35;1.92;;;1.83;;
8191;SDS011;4137;49.764;8.652;2022-08-30T03:53:01;2.20;;;2.10;;
8191;SDS011;4137;49.764;8.652;2022-08-30T03:55:27;2.05;;;1.60;;
8191;SDS011;4137;49.764;8.652;2022-08-30T03:57:54;2.05;;;1.95;;
8191;SDS011;4137;49.764;8.652;2022-08-30T04:00:20;2.55;;;1.55;;
8191;SDS011;4137;49.764;8.652;2022-08-30T04:02:46;2.75;;;2.55;;
8191;SDS011;4137;49.764;8.652;2022-08-30T04:05:12;3.05;;;2.25;;
8191;SDS011;4137;49.764;8.652;2022-08-30T04:07:39;3.40;;;1.70;;
8191;SDS011;4137;49.764;8.652;2022-08-30T04:10:05;2.97;;;1.52;;
8191;SDS011;4137;49.764;8.652;2022-08-30T04:12:32;2.15;;;1.60;;
8191;SDS011;4137;49.764;8.652;2022-08-30T04:14:58;1.90;;;1.80;;
8191;SDS011;4137;49.764;8.652;2022-08-30T04:17:24;3.67;;;1.88;;
8191;SDS011;4137;49.764;8.652;2022-08-30T04:19:50;4.55;;;1.85;;
8191;SDS011;4137;49.764;8.652;2022-08-30T04:22:16;1.85;;;1.70;;
8191;SDS011;4137;49.764;8.652;2022-08-30T04:24:42;2.20;;;1.58;;
8191;SDS011;4137;49.764;8.652;2022-08-30T04:27:08;1.83;;;1.73;;
8191;SDS011;4137;49.764;8.652;2022-08-30T04:29:34;2.75;;;1.88;;
8191;SDS011;4137;49.764;8.652;2022-08-30T04:32:00;2.25;;;1.70;;
8191;SDS011;4137;49.764;8.652;2022-08-30T04:34:26;2.40;;;1.58;;
8191;SDS011;4137;49.764;8.652;2022-08-30T04:36:52;1.55;;;1.45;;
8191;SDS011;4137;49.764;8.652;2022-08-30T04:39:18;2.55;;;1.52;;
8191;SDS011;4137;49.764;8.652;2022-08-30T04:41:44;2.55;;;1.83;;
8191;SDS011;4137;49.764;8.652;2022-08-30T04:44:10;2.35;;;2.00;;
8191;SDS011;4137;49.764;8.652;2022-08-30T04:46:36;1.73;;;1.65;;
8191;SDS011;4137;49.764;8.652;2022-08-30T04:49:03;1.90;;;1.80;;
8191;SDS011;4137;49.764;8.652;2022-08-30T04:51:29;1.85;;;1.42;;
8191;SDS011;4137;49.764;8.652;2022-08-30T04:53:55;4.57;;;2.13;;
8191;SDS011;4137;49.764;8.652;2022-08-30T04:56:22;1.67;;;1.58;;
8191;SDS011;4137;49.764;8.652;2022-08-30T04:58:49;2.83;;;2.22;;
8191;SDS011;4137;49.764;8.652;2022-08-30T05:01:17;3.55;;;2.10;;
8191;SDS011;4137;49.764;8.652;2022-08-30T05:03:44;2.58;;;1.73;;
8191;SDS011;4137;49.764;8.652;2022-08-30T05:06:10;2.45;;;2.05;;
8191;SDS011;4137;49.764;8.652;2022-08-30T05:08:36;1.70;;;1.65;;
8191;SDS011;4137;49.764;8.652;2022-08-30T05:11:03;4.75;;;2.20;;
8191;SDS011;4137;49.764;8.652;2022-08-30T05:13:29;3.80;;;1.52;;
8191;SDS011;4137;49.764;8.652;2022-08-30T05:15:55;2.33;;;2.13;;
8191;SDS011;4137;49.764;8.652;2022-08-30T05:18:21;2.40;;;2.28;;
8191;SDS011;4137;49.764;8.652;2022-08-30T05:20:47;3.45;;;1.90;;
8191;SDS011;4137;49.764;8.652;2022-08-30T05:23:13;3.20;;;2.00;;
8191;SDS011;4137;49.764;8.652;2022-08-30T05:25:40;2.53;;;2.22;;
8191;SDS011;4137;49.764;8.652;2022-08-30T05:28:07;1.90;;;1.75;;
8191;SDS011;4137;49.764;8.652;2022-08-30T05:30:34;2.22;;;2.00;;
8191;SDS011;4137;49.764;8.652;2022-08-30T05:33:00;2.60;;;1.90;;
8191;SDS011;4137;49.764;8.652;2022-08-30T05:35:26;3.30;;;2.03;;
8191;SDS011;4137;49.764;8.652;2022-08-30T05:37:52;4.38;;;1.98;;
8191;SDS011;4137;49.764;8.652;2022-08-30T05:40:18;3.63;;;1.90;;
8191;SDS011;4137;49.764;8.652;2022-08-30T05:42:44;3.22;;;2.08;;
8191;SDS011;4137;49.764;8.652;2022-08-30T05:45:11;2.40;;;2.20;;
8191;SDS011;4137;49.764;8.652;2022-08-30T05:47:38;3.28;;;1.92;;
8191;SDS011;4137;49.764;8.652;2022-08-30T05:50:04;2.45;;;2.35;;
8191;SDS011;4137;49.764;8.652;2022-08-30T05:52:37;3.35;;;2.45;;
8191;SDS011;4137;49.764;8.652;2022-08-30T05:55:04;3.88;;;1.90;;
8191;SDS011;4137;49.764;8.652;2022-08-30T05:57:32;2.50;;;2.30;;
8191;SDS011;4137;49.764;8.652;2022-08-30T05:59:59;5.47;;;3.25;;
8191;SDS011;4137;49.764;8.652;2022-08-30T06:02:24;4.35;;;3.70;;
8191;SDS011;4137;49.764;8.652;2022-08-30T06:04:51;5.55;;;2.10;;
8191;SDS011;4137;49.764;8.652;2022-08-30T06:07:17;4.03;;;2.33;;
8191;SDS011;4137;49.764;8.652;2022-08-30T06:09:43;3.42;;;1.90;;
8191;SDS011;4137;49.764;8.652;2022-08-30T06:12:09;2.15;;;1.90;;
8191;SDS011;4137;49.764;8.652;2022-08-30T06:14:35;2.08;;;1.90;;
8191;SDS011;4137;49.764;8.652;2022-08-30T06:17:02;3.35;;;1.90;;
8191;SDS011;4137;49.764;8.652;2022-08-30T06:19:28;3.67;;;1.85;;
8191;SDS011;4137;49.764;8.652;2022-08-30T06:21:54;2.92;;;2.17;;
8191;SDS011;4137;49.764;8.652;2022-08-30T06:24:20;2.17;;;1.95;;
8191;SDS011;4137;49.764;8.652;2022-08-30T06:26:46;2.05;;;1.95;;
8191;SDS011;4137;49.764;8.652;2022-08-30T06:29:14;3.53;;;1.98;;
8191;SDS011;4137;49.764;8.652;2022-08-30T06:31:40;2.58;;;2.33;;
8191;SDS011;4137;49.764;8.652;2022-08-30T06:34:06;2.20;;;2.17;;
8191;SDS011;4137;49.764;8.652;2022-08-30T06:36:32;3.00;;;2.42;;
8191;SDS011;4137;49.764;8.652;2022-08-30T06:39:00;3.22;;;2.40;;
8191;SDS011;4137;49.764;8.652;2022-08-30T06:41:27;4.63;;;2.15;;
8191;SDS011;4137;49.764;8.652;2022-08-30T06:43:54;2.25;;;2.13;;
8191;SDS011;4137;49.764;8.652;2022-08-30T06:46:21;1.83;;;1.73;;
8191;SDS011;4137;49.764;8.652;2022-08-30T06:48:47;1.95;;;1.73;;
8191;SDS011;4137;49.764;8.652;2022-08-30T06:51:13;2.17;;;2.08;;
8191;SDS011;4137;49.764;8.652;2022-08-30T06:53:40;4.32;;;2.40;;
8191;SDS011;4137;49.764;8.652;2022-08-30T06:56:07;2.47;;;2.30;;
8191;SDS011;4137;49.764;8.652;2022-08-30T06:58:34;2.25;;;2.15;;
8191;SDS011;4137;49.764;8.652;2022-08-30T07:01:00;7.10;;;2.30;;
8191;SDS011;4137;49.764;8.652;2022-08-30T07:03:26;2.33;;;2.22;;
8191;SDS011;4137;49.764;8.652;2022-08-30T07:05:53;2.88;;;2.22;;
8191;SDS011;4137;49.764;8.652;2022-08-30T07:08:19;6.25;;;2.28;;
8191;SDS011;4137;49.764;8.652;2022-08-30T07:10:47;7.88;;;2.22;;
8191;SDS011;4137;49.764;8.652;2022-08-30T07:13:13;2.97;;;2.22;;
8191;SDS011;4137;49.764;8.652;2022-08-30T07:15:41;1.90;;;1.80;;
8191;SDS011;4137;49.764;8.652;2022-08-30T07:18:08;4.20;;;2.15;;
8191;SDS011;4137;49.764;8.652;2022-08-30T07:20:53;1.70;;;1.60;;
8191;SDS011;4137;49.764;8.652;2022-08-30T07:23:19;3.85;;;2.30;;
8191;SDS011;4137;49.764;8.652;2022-08-30T07:25:45;2.85;;;2.33;;
8191;SDS011;4137;49.764;8.652;2022-08-30T07:28:11;3.33;;;2.05;;
8191;SDS011;4137;49.764;8.652;2022-08-30T07:30:37;2.25;;;2.15;;
8191;SDS011;4137;49.764;8.652;2022-08-30T07:33:03;3.22;;;2.08;;
8191;SDS011;4137;49.764;8.652;2022-08-30T07:35:29;2.08;;;1.85;;
8191;SDS011;4137;49.764;8.652;2022-08-30T07:37:56;4.70;;;2.75;;
8191;SDS011;4137;49.764;8.652;2022-08-30T07:40:22;5.15;;;2.15;;
8191;SDS011;4137;49.764;8.652;2022-08-30T07:42:48;2.40;;;2.28;;
8191;SDS011;4137;49.764;8.652;2022-08-30T07:45:14;2.15;;;2.00;;
8191;SDS011;4137;49.764;8.652;2022-08-30T07:47:40;2.15;;;2.05;;
8191;SDS011;4137;49.764;8.652;2022-08-30T07:50:06;3.05;;;2.17;;
8191;SDS011;4137;49.764;8.652;2022-08-30T07:52:33;3.25;;;2.10;;
8191;SDS011;4137;49.764;8.652;2022-08-30T07:54:59;2.90;;;1.92;;
8191;SDS011;4137;49.764;8.652;2022-08-30T07:57:25;3.60;;;2.33;;
8191;SDS011;4137;49.764;8.652;2022-08-30T07:59:55;4.95;;;2.08;;
8191;SDS011;4137;49.764;8.652;2022-08-30T08:02:21;2.60;;;2.20;;
8191;SDS011;4137;49.764;8.652;2022-08-30T08:04:47;4.88;;;2.15;;
8191;SDS011;4137;49.764;8.652;2022-08-30T08:07:13;3.72;;;2.28;;
8191;SDS011;4137;49.764;8.652;2022-08-30T08:09:39;2.20;;;1.92;;
8191;SDS011;4137;49.764;8.652;2022-08-30T08:12:06;1.90;;;1.80;;
8191;SDS011;4137;49.764;8.652;2022-08-30T08:14:32;2.47;;;1.88;;
8191;SDS011;4137;49.764;8.652;2022-08-30T08:16:59;4.10;;;2.17;;
8191;SDS011;4137;49.764;8.652;2022-08-30T08:19:25;2.22;;;2.03;;
8191;SDS011;4137;49.764;8.652;2022-08-30T08:21:51;5.30;;;2.30;;
8191;SDS011;4137;49.764;8.652;2022-08-30T08:24:24;3.63;;;2.42;;
8191;SDS011;4137;49.764;8.652;2022-08-30T08:26:50;2.38;;;2.15;;
8191;SDS011;4137;49.764;8.652;2022-08-30T08:29:16;6.82;;;2.22;;
8191;SDS011;4137;49.764;8.652;2022-08-30T08:31:42;2.17;;;2.00;;
8191;SDS011;4137;49.764;8.652;2022-08-30T08:34:09;3.70;;;1.83;;
8191;SDS011;4137;49.764;8.652;2022-08-30T08:36:36;5.43;;;2.17;;
8191;SDS011;4137;49.764;8.652;2022-08-30T08:39:03;2.50;;;2.35;;
8191;SDS011;4137;49.764;8.652;2022-08-30T08:44:14;3.53;;;3.17;;
8191;SDS011;4137;49.764;8.652;2022-08-30T08:46:46;2.17;;;2.00;;
8191;SDS011;4137;49.764;8.652;2022-08-30T08:49:13;3.15;;;1.95;;
8191;SDS011;4137;49.764;8.652;2022-08-30T08:51:39;3.53;;;2.20;;
8191;SDS011;4137;49.764;8.652;2022-08-30T08:57:06;3.72;;;2.28;;
8191;SDS011;4137;49.764;8.652;2022-08-30T08:59:32;6.45;;;2.42;;
8191;SDS011;4137;49.764;8.652;2022-08-30T09:01:58;4.93;;;2.30;;
8191;SDS011;4137;49.764;8.652;2022-08-30T09:04:29;3.72;;;2.25;;
8191;SDS011;4137;49.764;8.652;2022-08-30T09:07:08;2.08;;;1.98;;
8191;SDS011;4137;49.764;8.652;2022-08-30T09:09:39;3.60;;;2.35;;
8191;SDS011;4137;49.764;8.652;2022-08-30T09:12:06;3.30;;;2.38;;
8191;SDS011;4137;49.764;8.652;2022-08-30T09:14:36;4.78;;;2.40;;
8191;SDS011;4137;49.764;8.652;2022-08-30T09:17:10;2.88;;;2.25;;
8191;SDS011;4137;49.764;8.652;2022-08-30T09:24:36;2.08;;;1.98;;
8191;SDS011;4137;49.764;8.652;2022-08-30T09:29:54;3.63;;;2.05;;
8191;SDS011;4137;49.764;8.652;2022-08-30T09:32:31;3.30;;;2.05;;
8191;SDS011;4137;49.764;8.652;2022-08-30T09:34:57;2.58;;;2.10;;
8191;SDS011;4137;49.764;8.652;2022-08-30T09:37:24;2.55;;;2.13;;
8191;SDS011;4137;49.764;8.652;2022-08-30T09:39:50;2.78;;;2.13;;
8191;SDS011;4137;49.764;8.652;2022-08-30T09:42:21;2.20;;;2.10;;
8191;SDS011;4137;49.764;8.652;2022-08-30T09:44:51;2.20;;;2.10;;
8191;SDS011;4137;49.764;8.652;2022-08-30T09:47:26;3.53;;;2.15;;
8191;SDS011;4137;49.764;8.652;2022-08-30T09:50:01;1.95;;;1.95;;
8191;SDS011;4137;49.764;8.652;2022-08-30T09:57:36;2.08;;;2.00;;
8191;SDS011;4137;49.764;8.652;2022-08-30T10:00:05;2.35;;;1.92;;
8191;SDS011;4137;49.764;8.652;2022-08-30T10:10:10;2.60;;;2.10;;
8191;SDS011;4137;49.764;8.652;2022-08-30T10:20:22;4.63;;;2.17;;
8191;SDS011;4137;49.764;8.652;2022-08-30T10:25:34;2.90;;;2.70;;
8191;SDS011;4137;49.764;8.652;2022-08-30T10:30:27;2.17;;;2.00;;
8191;SDS011;4137;49.764;8.652;2022-08-30T10:33:00;2.50;;;2.17;;
8191;SDS011;4137;49.764;8.652;2022-08-30T10:35:49;1.90;;;1.80;;
8191;SDS011;4137;49.764;8.652;2022-08-30T10:38:21;2.28;;;1.95;;
8191;SDS011;4137;49.764;8.652;2022-08-30T10:40:51;2.67;;;2.03;;
8191;SDS011;4137;49.764;8.652;2022-08-30T10:44:24;2.75;;;2.60;;
8191;SDS011;4137;49.764;8.652;2022-08-30T10:46:32;3.00;;;1.92;;
8191;SDS011;4137;49.764;8.652;2022-08-30T10:49:00;2.45;;;2.35;;
8191;SDS011;4137;49.764;8.652;2022-08-30T10:51:31;1.83;;;1.83;;
8191;SDS011;4137;49.764;8.652;2022-08-30T10:56:32;1.88;;;1.77;;
8191;SDS011;4137;49.764;8.652;2022-08-30T10:59:00;2.13;;;2.03;;
8191;SDS011;4137;49.764;8.652;2022-08-30T11:04:00;2.28;;;2.00;;
8191;SDS011;4137;49.764;8.652;2022-08-30T11:14:14;2.75;;;2.40;;
8191;SDS011;4137;49.764;8.652;2022-08-30T11:16:42;2.17;;;2.08;;
8191;SDS011;4137;49.764;8.652;2022-08-30T11:19:33;2.47;;;2.38;;
8191;SDS011;4137;49.764;8.652;2022-08-30T11:22:22;3.85;;;2.15;;
8191;SDS011;4137;49.764;8.652;2022-08-30T11:27:40;2.47;;;2.38;;
8191;SDS011;4137;49.764;8.652;2022-08-30T11:33:04;1.90;;;1.80;;
8191;SDS011;4137;49.764;8.652;2022-08-30T11:35:37;2.50;;;2.22;;
8191;SDS011;4137;49.764;8.652;2022-08-30T11:38:17;4.25;;;1.92;;
8191;SDS011;4137;49.764;8.652;2022-08-30T11:40:49;2.63;;;2.30;;
8191;SDS011;4137;49.764;8.652;2022-08-30T11:46:14;1.90;;;1.90;;
8191;SDS011;4137;49.764;8.652;2022-08-30T11:48:41;1.95;;;1.85;;
8191;SDS011;4137;49.764;8.652;2022-08-30T11:51:20;1.50;;;1.50;;
8191;SDS011;4137;49.764;8.652;2022-08-30T11:53:54;3.38;;;2.00;;
8191;SDS011;4137;49.764;8.652;2022-08-30T11:59:18;1.80;;;1.80;;
8191;SDS011;4137;49.764;8.652;2022-08-30T12:01:44;4.13;;;1.83;;
8191;SDS011;4137;49.764;8.652;2022-08-30T12:06:50;1.60;;;1.60;;
8191;SDS011;4137;49.764;8.652;2022-08-30T12:12:05;1.80;;;1.80;;
8191;SDS011;4137;49.764;8.652;2022-08-30T12:17:17;1.98;;;1.80;;
8191;SDS011;4137;49.764;8.652;2022-08-30T12:20:03;2.20;;;2.10;;
8191;SDS011;4137;49.764;8.652;2022-08-30T12:22:30;1.70;;;1.70;;
8191;SDS011;4137;49.764;8.652;2022-08-30T12:25:02;1.83;;;1.77;;
8191;SDS011;4137;49.764;8.652;2022-08-30T12:27:37;2.13;;;2.03;;
8191;SDS011;4137;49.764;8.652;2022-08-30T12:30:07;1.95;;;1.95;;
8191;SDS011;4137;49.764;8.652;2022-08-30T12:32:33;1.95;;;1.85;;
8191;SDS011;4137;49.764;8.652;2022-08-30T12:35:15;2.33;;;1.90;;
8191;SDS011;4137;49.764;8.652;2022-08-30T12:37:42;1.95;;;1.80;;
8191;SDS011;4137;49.764;8.652;2022-08-30T12:42:35;2.05;;;1.85;;
8191;SDS011;4137;49.764;8.652;2022-08-30T12:45:06;1.98;;;1.90;;
8191;SDS011;4137;49.764;8.652;2022-08-30T12:50:08;3.35;;;1.83;;
8191;SDS011;4137;49.764;8.652;2022-08-30T12:52:38;1.90;;;1.80;;
8191;SDS011;4137;49.764;8.652;2022-08-30T12:55:15;2.20;;;2.10;;
8191;SDS011;4137;49.764;8.652;2022-08-30T12:57:43;1.95;;;1.95;;
8191;SDS011;4137;49.764;8.652;2022-08-30T13:00:26;1.90;;;1.80;;
8191;SDS011;4137;49.764;8.652;2022-08-30T13:02:53;2.20;;;2.00;;
8191;SDS011;4137;49.764;8.652;2022-08-30T13:05:27;2.25;;;1.88;;
8191;SDS011;4137;49.764;8.652;2022-08-30T13:13:26;3.33;;;2.38;;
8191;SDS011;4137;49.764;8.652;2022-08-30T13:15:52;2.10;;;1.98;;
8191;SDS011;4137;49.764;8.652;2022-08-30T13:18:23;1.70;;;1.60;;
8191;SDS011;4137;49.764;8.652;2022-08-30T13:20:51;2.17;;;1.92;;
8191;SDS011;4137;49.764;8.652;2022-08-30T13:23:33;1.50;;;1.45;;
8191;SDS011;4137;49.764;8.652;2022-08-30T13:26:00;2.15;;;1.95;;
8191;SDS011;4137;49.764;8.652;2022-08-30T13:28:26;1.60;;;1.60;;
8191;SDS011;4137;49.764;8.652;2022-08-30T13:30:53;2.53;;;1.80;;
8191;SDS011;4137;49.764;8.652;2022-08-30T13:33:19;1.58;;;1.58;;
8191;SDS011;4137;49.764;8.652;2022-08-30T13:35:45;1.52;;;1.52;;
8191;SDS011;4137;49.764;8.652;2022-08-30T13:38:11;1.98;;;1.88;;
8191;SDS011;4137;49.764;8.652;2022-08-30T13:40:37;2.08;;;1.92;;
8191;SDS011;4137;49.764;8.652;2022-08-30T13:43:03;2.35;;;1.90;;
8191;SDS011;4137;49.764;8.652;2022-08-30T13:45:29;2.08;;;1.90;;
8191;SDS011;4137;49.764;8.652;2022-08-30T13:47:55;1.98;;;1.88;;
8191;SDS011;4137;49.764;8.652;2022-08-30T13:50:21;1.52;;;1.52;;
8191;SDS011;4137;49.764;8.652;2022-08-30T13:52:47;4.80;;;2.10;;
8191;SDS011;4137;49.764;8.652;2022-08-30T13:55:13;2.47;;;2.00;;
8191;SDS011;4137;49.764;8.652;2022-08-30T13:57:39;2.10;;;2.00;;
8191;SDS011;4137;49.764;8.652;2022-08-30T14:00:05;1.85;;;1.75;;
8191;SDS011;4137;49.764;8.652;2022-08-30T14:02:33;2.45;;;1.73;;
8191;SDS011;4137;49.764;8.652;2022-08-30T14:04:59;2.00;;;1.90;;
8191;SDS011;4137;49.764;8.652;2022-08-30T14:07:25;2.75;;;2.13;;
8191;SDS011;4137;49.764;8.652;2022-08-30T14:09:51;3.03;;;2.20;;
8191;SDS011;4137;49.764;8.652;2022-08-30T14:12:17;3.05;;;1.98;;
8191;SDS011;4137;49.764;8.652;2022-08-30T14:14:43;3.28;;;2.13;;
8191;SDS011;4137;49.764;8.652;2022-08-30T14:17:09;1.83;;;1.83;;
8191;SDS011;4137;49.764;8.652;2022-08-30T14:19:35;2.10;;;1.98;;
8191;SDS011;4137;49.764;8.652;2022-08-30T14:22:01;2.05;;;2.03;;
8191;SDS011;4137;49.764;8.652;2022-08-30T14:24:27;2.67;;;2.60;;
8191;SDS011;4137;49.764;8.652;2022-08-30T14:26:53;2.60;;;2.25;;
8191;SDS011;4137;49.764;8.652;2022-08-30T14:29:21;4.85;;;2.85;;
8191;SDS011;4137;49.764;8.652;2022-08-30T14:31:48;1.92;;;1.92;;
8191;SDS011;4137;49.764;8.652;2022-08-30T14:34:14;2.25;;;1.85;;
8191;SDS011;4137;49.764;8.652;2022-08-30T14:36:41;1.92;;;1.83;;
8191;SDS011;4137;49.764;8.652;2022-08-30T14:39:09;4.70;;;1.73;;
8191;SDS011;4137;49.764;8.652;2022-08-30T14:41:39;2.30;;;2.13;;
8191;SDS011;4137;49.764;8.652;2022-08-30T14:44:06;3.72;;;3.55;;
8191;SDS011;4137;49.764;8.652;2022-08-30T14:46:32;2.35;;;2.25;;
8191;SDS011;4137;49.764;8.652;2022-08-30T14:48:58;2.35;;;2.25;;
8191;SDS011;4137;49.764;8.652;2022-08-30T14:51:24;3.00;;;2.80;;
8191;SDS011;4137;49.764;8.652;2022-08-30T14:53:51;2.05;;;1.95;;
8191;SDS011;4137;49.764;8.652;2022-08-30T14:56:18;2.38;;;1.98;;
8191;SDS011;4137;49.764;8.652;2022-08-30T14:58:44;2.40;;;2.10;;
8191;SDS011;4137;49.764;8.652;2022-08-30T15:01:11;3.13;;;2.10;;
8191;SDS011;4137;49.764;8.652;2022-08-30T15:03:38;3.00;;;2.15;;
8191;SDS011;4137;49.764;8.652;2022-08-30T15:06:04;2.25;;;1.88;;
8191;SDS011;4137;49.764;8.652;2022-08-30T15:08:31;2.22;;;2.13;;
8191;SDS011;4137;49.764;8.652;2022-08-30T15:10:57;2.13;;;2.03;;
8191;SDS011;4137;49.764;8.652;2022-08-30T15:13:24;2.22;;;1.98;;
8191;SDS011;4137;49.764;8.652;2022-08-30T15:15:50;2.15;;;2.05;;
8191;SDS011;4137;49.764;8.652;2022-08-30T15:18:16;2.20;;;2.20;;
8191;SDS011;4137;49.764;8.652;2022-08-30T15:20:46;6.63;;;2.75;;
8191;SDS011;4137;49.764;8.652;2022-08-30T15:23:12;2.10;;;2.00;;
8191;SDS011;4137;49.764;8.652;2022-08-30T15:25:39;2.20;;;2.10;;
8191;SDS011;4137;49.764;8.652;2022-08-30T15:28:05;2.22;;;2.13;;
8191;SDS011;4137;49.764;8.652;2022-08-30T15:30:31;2.63;;;2.40;;
8191;SDS011;4137;49.764;8.652;2022-08-30T15:32:57;2.13;;;1.92;;
8191;SDS011;4137;49.764;8.652;2022-08-30T15:35:23;3.65;;;2.60;;
8191;SDS011;4137;49.764;8.652;2022-08-30T15:37:49;2.25;;;2.17;;
8191;SDS011;4137;49.764;8.652;2022-08-30T15:40:15;1.92;;;1.88;;
8191;SDS011;4137;49.764;8.652;2022-08-30T15:42:41;2.25;;;2.10;;
8191;SDS011;4137;49.764;8.652;2022-08-30T15:45:07;2.10;;;2.05;;
8191;SDS011;4137;49.764;8.652;2022-08-30T15:47:33;3.70;;;2.20;;
8191;SDS011;4137;49.764;8.652;2022-08-30T15:50:00;2.13;;;2.03;;
8191;SDS011;4137;49.764;8.652;2022-08-30T15:52:27;2.47;;;1.90;;
8191;SDS011;4137;49.764;8.652;2022-08-30T15:54:53;2.03;;;2.03;;
8191;SDS011;4137;49.764;8.652;2022-08-30T15:57:19;2.35;;;2.15;;
8191;SDS011;4137;49.764;8.652;2022-08-30T15:59:45;2.10;;;2.00;;
8191;SDS011;4137;49.764;8.652;2022-08-30T16:02:11;1.77;;;1.77;;
8191;SDS011;4137;49.764;8.652;2022-08-30T16:04:37;1.90;;;1.90;;
8191;SDS011;4137;49.764;8.652;2022-08-30T16:07:03;2.00;;;1.90;;
8191;SDS011;4137;49.764;8.652;2022-08-30T16:09:30;2.25;;;2.00;;
8191;SDS011;4137;49.764;8.652;2022-08-30T16:11:56;1.95;;;1.83;;
8191;SDS011;4137;49.764;8.652;2022-08-30T16:14:22;1.73;;;1.73;;
8191;SDS011;4137;49.764;8.652;2022-08-30T16:16:49;1.90;;;1.90;;
8191;SDS011;4137;49.764;8.652;2022-08-30T16:19:15;2.30;;;2.03;;
8191;SDS011;4137;49.764;8.652;2022-08-30T16:21:41;2.13;;;1.95;;
8191;SDS011;4137;49.764;8.652;2022-08-30T16:24:08;1.83;;;1.80;;
8191;SDS011;4137;49.764;8.652;2022-08-30T16:26:35;3.08;;;1.95;;
8191;SDS011;4137;49.764;8.652;2022-08-30T16:29:01;1.75;;;1.75;;
8191;SDS011;4137;49.764;8.652;2022-08-30T16:31:28;2.65;;;1.98;;
8191;SDS011;4137;49.764;8.652;2022-08-30T16:33:55;1.88;;;1.88;;
8191;SDS011;4137;49.764;8.652;2022-08-30T16:36:21;2.22;;;2.05;;
8191;SDS011;4137;49.764;8.652;2022-08-30T16:38:48;2.30;;;2.15;;
8191;SDS011;4137;49.764;8.652;2022-08-30T16:41:15;2.78;;;2.67;;